createdAt,value
2023-03-26T00:01:37.483Z,97533.31
2023-03-26T00:04:09.231Z,97529.41
2023-03-26T00:06:40.337Z,97524.94
2023-03-26T00:09:10.576Z,97527.03
2023-03-26T00:11:38.790Z,97524.03
2023-03-26T00:14:07.179Z,97524.03
2023-03-26T00:16:35.403Z,97524.50
2023-03-26T00:19:04.173Z,97530.09
2023-03-26T00:21:33.798Z,97530.34
2023-03-26T00:24:04.879Z,97525.47
2023-03-26T00:26:33.815Z,97522.00
2023-03-26T00:29:04.023Z,97518.75
2023-03-26T00:31:32.611Z,97525.16
2023-03-26T00:34:03.649Z,97537.75
2023-03-26T00:36:35.823Z,97525.66
2023-03-26T00:39:05.729Z,97543.91
2023-03-26T00:41:37.159Z,97538.56
2023-03-26T00:44:05.560Z,97533.19
2023-03-26T00:46:33.787Z,97534.50
2023-03-26T00:49:03.852Z,97529.13
2023-03-26T00:51:34.139Z,97531.00
2023-03-26T00:54:03.383Z,97515.75
2023-03-26T00:56:31.772Z,97516.56
2023-03-26T00:59:00.313Z,97510.69
2023-03-26T01:01:30.512Z,97502.03
2023-03-26T01:04:08.882Z,97500.97
2023-03-26T01:06:42.349Z,97496.34
2023-03-26T01:09:17.297Z,97491.78
2023-03-26T01:11:46.429Z,97487.75
2023-03-26T01:14:17.826Z,97482.38
2023-03-26T01:16:50.089Z,97483.19
2023-03-26T01:19:26.114Z,97473.28
2023-03-26T01:21:55.533Z,97467.34
2023-03-26T01:24:25.190Z,97463.31
2023-03-26T01:27:09.696Z,97466.06
2023-03-26T01:29:44.242Z,97463.56
2023-03-26T01:32:24.399Z,97457.38
2023-03-26T01:35:04.797Z,97449.34
2023-03-26T01:37:40.926Z,97444.22
2023-03-26T01:40:18.814Z,97442.19
2023-03-26T01:42:53.363Z,97443.41
2023-03-26T01:45:25.722Z,97438.06
2023-03-26T01:47:54.539Z,97433.50
2023-03-26T01:50:22.658Z,97430.28
2023-03-26T01:52:51.038Z,97418.50
2023-03-26T01:55:22.554Z,97431.41
2023-03-26T01:58:01.048Z,97425.47
2023-03-26T02:00:32.852Z,97419.88
2023-03-26T02:03:18.121Z,97415.31
2023-03-26T02:05:54.513Z,97408.91
2023-03-26T02:08:31.748Z,97407.59
2023-03-26T02:11:05.211Z,97396.31
2023-03-26T02:13:33.623Z,97385.09
2023-03-26T02:16:02.915Z,97386.97
2023-03-26T02:18:36.505Z,97378.13
2023-03-26T02:21:09.920Z,97373.09
2023-03-26T02:23:38.590Z,97370.91
2023-03-26T02:26:10.154Z,97361.56
2023-03-26T02:28:38.822Z,97351.88
2023-03-26T02:31:09.811Z,97349.78
2023-03-26T02:33:38.928Z,97351.94
2023-03-26T02:36:08.799Z,97351.69
2023-03-26T02:38:36.782Z,97346.09
2023-03-26T02:41:05.515Z,97333.50
2023-03-26T02:43:34.940Z,97337.00
2023-03-26T02:46:02.951Z,97333.50
2023-03-26T02:48:31.394Z,97327.34
2023-03-26T02:50:59.357Z,97339.69
2023-03-26T02:53:29.960Z,97331.88
2023-03-26T02:55:58.333Z,97339.44
2023-03-26T02:58:26.691Z,97330.56
2023-03-26T03:00:56.912Z,97332.19
2023-03-26T03:03:25.773Z,97322.53
2023-03-26T03:05:54.703Z,97322.84
2023-03-26T03:08:24.453Z,97319.16
2023-03-26T03:11:00.358Z,97319.09
2023-03-26T03:13:28.790Z,97310.25
2023-03-26T03:15:58.435Z,97308.88
2023-03-26T03:18:26.606Z,97305.66
2023-03-26T03:20:54.979Z,97297.59
2023-03-26T03:23:23.000Z,97296.78
2023-03-26T03:25:52.652Z,97295.19
2023-03-26T03:28:21.677Z,97290.63
2023-03-26T03:30:53.064Z,97286.31
2023-03-26T03:33:22.468Z,97280.41
2023-03-26T03:35:51.398Z,97281.78
2023-03-26T03:38:19.508Z,97275.41
2023-03-26T03:40:47.470Z,97269.75
2023-03-26T03:43:15.380Z,97260.91
2023-03-26T03:45:43.434Z,97254.97
2023-03-26T03:48:11.423Z,97249.88
2023-03-26T03:50:40.772Z,97250.69
2023-03-26T03:53:08.675Z,97246.94
2023-03-26T03:55:38.361Z,97241.31
2023-03-26T03:58:09.139Z,97241.88
2023-03-26T04:00:38.367Z,97245.16
2023-03-26T04:03:06.695Z,97222.91
2023-03-26T04:05:35.258Z,97225.59
2023-03-26T04:08:04.706Z,97223.16
2023-03-26T04:10:32.805Z,97215.38
2023-03-26T04:13:01.113Z,97214.31
2023-03-26T04:15:29.208Z,97218.06
2023-03-26T04:17:57.221Z,97221.00
2023-03-26T04:20:25.163Z,97221.00
2023-03-26T04:22:53.280Z,97212.16
2023-03-26T04:25:22.671Z,97203.59
2023-03-26T04:27:50.616Z,97196.63
2023-03-26T04:30:21.234Z,97189.34
2023-03-26T04:32:49.556Z,97191.25
2023-03-26T04:35:19.590Z,97173.47
2023-03-26T04:37:48.197Z,97169.22
2023-03-26T04:40:18.470Z,97164.41
2023-03-26T04:42:47.875Z,97156.63
2023-03-26T04:45:17.793Z,97143.22
2023-03-26T04:47:46.722Z,97152.34
2023-03-26T04:50:14.877Z,97142.16
2023-03-26T04:52:45.099Z,97146.97
2023-03-26T04:55:24.567Z,97144.56
2023-03-26T04:57:59.851Z,97139.19
2023-03-26T05:00:28.478Z,97135.97
2023-03-26T05:02:57.944Z,97113.97
2023-03-26T05:05:27.426Z,97115.03
2023-03-26T05:07:55.382Z,97114.22
2023-03-26T05:10:24.208Z,97109.41
2023-03-26T05:12:52.382Z,97105.94
2023-03-26T05:15:22.440Z,97106.22
2023-03-26T05:17:51.345Z,97116.69
2023-03-26T05:20:22.608Z,97117.50
2023-03-26T05:22:52.064Z,97109.22
2023-03-26T05:25:20.670Z,97098.75
2023-03-26T05:27:48.971Z,97112.69
2023-03-26T05:30:19.572Z,97111.03
2023-03-26T05:32:50.369Z,97111.63
2023-03-26T05:35:18.775Z,97107.59
2023-03-26T05:37:48.091Z,97099.56
2023-03-26T05:40:18.088Z,97097.16
2023-03-26T05:42:46.572Z,97093.69
2023-03-26T05:45:16.861Z,97082.16
2023-03-26T05:47:45.396Z,97081.09
2023-03-26T05:50:15.816Z,97075.22
2023-03-26T05:52:44.810Z,97078.44
2023-03-26T05:55:13.444Z,97077.38
2023-03-26T05:57:42.777Z,97064.78
2023-03-26T06:00:12.304Z,97064.28
2023-03-26T06:02:42.304Z,97061.31
2023-03-26T06:05:12.516Z,97061.97
2023-03-26T06:07:41.950Z,97044.75
2023-03-26T06:10:11.177Z,97040.47
2023-03-26T06:12:46.703Z,97035.06
2023-03-26T06:15:14.899Z,97033.50
2023-03-26T06:17:45.046Z,97034.66
2023-03-26T06:20:14.631Z,97042.66
2023-03-26T06:22:44.367Z,97041.28
2023-03-26T06:25:12.973Z,97041.59
2023-03-26T06:27:41.006Z,97041.25
2023-03-26T06:30:10.404Z,97038.00
2023-03-26T06:32:38.981Z,97030.00
2023-03-26T06:35:07.779Z,97008.81
2023-03-26T06:37:39.120Z,96998.63
2023-03-26T06:40:10.723Z,96985.53
2023-03-26T06:43:07.761Z,96976.38
2023-03-26T06:45:27.700Z,96975.84
2023-03-26T06:47:56.116Z,96972.44
2023-03-26T06:50:25.141Z,96971.63
2023-03-26T06:52:55.083Z,96959.56
2023-03-26T06:55:25.048Z,96963.53
2023-03-26T06:57:54.537Z,96953.63
2023-03-26T07:00:23.105Z,96952.81
2023-03-26T07:02:51.214Z,96947.72
2023-03-26T07:05:19.357Z,96954.41
2023-03-26T07:07:48.455Z,96953.63
2023-03-26T07:10:16.574Z,96949.63
2023-03-26T07:12:46.084Z,96945.63
2023-03-26T07:15:14.362Z,96945.88
2023-03-26T07:17:42.387Z,96943.69
2023-03-26T07:20:11.601Z,96935.66
2023-03-26T07:22:40.228Z,96927.88
2023-03-26T07:25:09.950Z,96923.06
2023-03-26T07:27:45.633Z,96924.66
2023-03-26T07:30:17.784Z,96917.13
2023-03-26T07:32:58.639Z,96916.59
2023-03-26T07:35:31.612Z,96910.41
2023-03-26T07:38:16.599Z,96895.13
2023-03-26T07:40:58.448Z,96890.59
2023-03-26T07:43:40.661Z,96886.84
2023-03-26T07:46:13.278Z,96874.78
2023-03-26T07:48:43.820Z,96874.25
2023-03-26T07:51:13.204Z,96880.47
2023-03-26T07:53:48.035Z,96881.47
2023-03-26T07:56:18.443Z,96893.25
2023-03-26T07:58:58.696Z,96891.38
2023-03-26T08:01:43.576Z,96876.91
2023-03-26T08:04:43.943Z,96878.25
2023-03-26T08:07:20.947Z,96875.03
2023-03-26T08:10:01.192Z,96870.75
2023-03-26T08:12:39.093Z,96866.19
2023-03-26T08:15:15.159Z,96876.13
2023-03-26T08:17:49.445Z,96873.16
2023-03-26T08:20:32.157Z,96866.19
2023-03-26T08:23:07.524Z,96864.59
2023-03-26T08:25:38.175Z,96865.66
2023-03-26T08:28:17.876Z,96858.13
2023-03-26T08:30:47.151Z,96853.31
2023-03-26T08:33:20.632Z,96847.41
2023-03-26T08:35:50.124Z,96848.50
2023-03-26T08:38:20.597Z,96841.50
2023-03-26T08:41:25.293Z,96838.31
2023-03-26T08:44:50.285Z,96831.34
2023-03-26T08:47:55.747Z,96821.69
2023-03-26T08:51:05.248Z,96820.06
2023-03-26T08:54:20.779Z,96809.88
2023-03-26T08:57:00.216Z,96798.38
2023-03-26T09:00:06.742Z,96802.91
2023-03-26T09:03:00.605Z,96804.78
2023-03-26T09:05:54.908Z,96800.78
2023-03-26T09:09:01.565Z,96801.06
2023-03-26T09:12:03.062Z,96800.25
2023-03-26T09:15:10.254Z,96797.31
2023-03-26T09:18:31.514Z,96797.59
2023-03-26T09:21:44.554Z,96808.59
2023-03-26T09:24:38.986Z,96822.50
2023-03-26T09:27:16.693Z,96812.06
2023-03-26T09:30:36.952Z,96803.22
2023-03-26T09:33:22.830Z,96810.78
2023-03-26T09:35:56.465Z,96814.78
2023-03-26T09:38:43.496Z,96829.56
2023-03-26T09:41:18.029Z,96830.91
2023-03-26T09:44:14.380Z,96812.41
2023-03-26T09:46:54.739Z,96810.25
2023-03-26T09:49:39.653Z,96801.69
2023-03-26T09:52:21.759Z,96797.88
2023-03-26T09:55:43.536Z,96792.72
2023-03-26T09:58:35.623Z,96790.78
2023-03-26T10:01:11.170Z,96783.25
2023-03-26T10:03:49.699Z,96791.78
2023-03-26T10:06:34.416Z,96784.19
2023-03-26T10:09:22.060Z,96793.00
2023-03-26T10:12:06.166Z,96785.72
2023-03-26T10:14:42.283Z,96782.47
2023-03-26T10:17:28.858Z,96794.81
2023-03-26T10:20:13.497Z,96787.25
2023-03-26T10:22:54.045Z,96786.91
2023-03-26T10:25:40.083Z,96773.09
2023-03-26T10:28:24.821Z,96782.91
2023-03-26T10:31:09.943Z,96786.38
2023-03-26T10:33:52.302Z,96772.78
2023-03-26T10:36:30.942Z,96773.66
2023-03-26T10:39:37.836Z,96767.25
2023-03-26T10:42:21.241Z,96769.59
2023-03-26T10:45:11.055Z,96779.50
2023-03-26T10:48:14.770Z,96766.81
2023-03-26T10:50:55.274Z,96769.97
2023-03-26T10:53:37.373Z,96768.41
2023-03-26T10:56:15.852Z,96771.25
2023-03-26T10:58:48.543Z,96756.59
2023-03-26T11:01:25.283Z,96771.28
2023-03-26T11:03:56.625Z,96775.28
2023-03-26T11:06:33.627Z,96780.75
2023-03-26T11:09:16.316Z,96771.78
2023-03-26T11:11:48.855Z,96765.94
2023-03-26T11:14:33.819Z,96772.50
2023-03-26T11:17:14.801Z,96779.09
2023-03-26T11:20:06.285Z,96764.06
2023-03-26T11:22:45.383Z,96761.41
2023-03-26T11:25:35.887Z,96756.44
2023-03-26T11:28:24.669Z,96760.25
2023-03-26T11:31:00.249Z,96758.34
2023-03-26T11:33:34.088Z,96758.22
2023-03-26T11:36:07.900Z,96745.31
2023-03-26T11:38:40.313Z,96741.28
2023-03-26T11:41:16.103Z,96744.09
2023-03-26T11:43:57.678Z,96734.38
2023-03-26T11:46:28.600Z,96728.34
2023-03-26T11:48:59.906Z,96724.38
2023-03-26T11:51:36.301Z,96715.97
2023-03-26T11:54:06.473Z,96725.00
2023-03-26T11:56:38.968Z,96723.31
2023-03-26T11:59:25.895Z,96724.72
2023-03-26T12:01:58.620Z,96720.72
2023-03-26T12:04:30.690Z,96725.03
2023-03-26T12:07:10.935Z,96740.53
2023-03-26T12:09:39.394Z,96751.19
2023-03-26T12:12:08.149Z,96766.47
2023-03-26T12:14:36.441Z,96749.44
2023-03-26T12:17:09.332Z,96746.03
2023-03-26T12:19:40.906Z,96749.59
2023-03-26T12:22:30.314Z,96747.94
2023-03-26T12:25:16.712Z,96748.06
2023-03-26T12:27:46.483Z,96749.47
2023-03-26T12:30:22.545Z,96766.69
2023-03-26T12:32:53.334Z,96799.19
2023-03-26T12:35:27.384Z,96790.06
2023-03-26T12:38:13.770Z,96760.34
2023-03-26T12:40:43.088Z,96756.72
2023-03-26T12:44:54.325Z,96753.06
2023-03-26T12:47:54.538Z,96738.72
2023-03-26T12:49:17.560Z,96730.06
2023-03-26T12:51:51.863Z,96721.63
2023-03-26T12:54:47.157Z,96717.88
2023-03-26T12:57:22.841Z,96711.50
2023-03-26T13:00:10.968Z,96719.28
2023-03-26T13:03:13.380Z,96714.66
2023-03-26T13:05:55.820Z,96711.97
2023-03-26T13:08:46.859Z,96702.47
2023-03-26T13:11:24.753Z,96699.44
2023-03-26T13:14:20.515Z,96694.72
2023-03-26T13:16:57.085Z,96687.81
2023-03-26T13:19:34.307Z,96691.47
2023-03-26T13:22:16.777Z,96680.84
2023-03-26T13:24:52.906Z,96672.50
2023-03-26T13:27:36.806Z,96669.31
2023-03-26T13:30:16.447Z,96656.88
2023-03-26T13:32:59.477Z,96663.00
2023-03-26T13:35:34.562Z,96648.78
2023-03-26T13:38:13.139Z,96644.47
2023-03-26T13:40:52.803Z,96659.00
2023-03-26T13:43:33.752Z,96653.13
2023-03-26T13:46:08.663Z,96658.28
2023-03-26T13:48:43.090Z,96653.47
2023-03-26T13:51:16.739Z,96657.06
2023-03-26T13:53:54.520Z,96648.72
2023-03-26T13:56:27.991Z,96647.81
2023-03-26T13:59:01.709Z,96644.63
2023-03-26T14:01:35.297Z,96649.22
2023-03-26T14:04:09.630Z,96641.81
2023-03-26T14:06:46.580Z,96632.09
2023-03-26T14:09:20.760Z,96639.09
2023-03-26T14:11:59.395Z,96631.91
2023-03-26T14:14:38.529Z,96637.34
2023-03-26T14:17:15.059Z,96633.75
2023-03-26T14:20:22.051Z,96629.81
2023-03-26T14:23:06.338Z,96620.03
2023-03-26T14:25:51.220Z,96618.13
2023-03-26T14:28:44.151Z,96614.13
2023-03-26T14:31:23.806Z,96617.72
2023-03-26T14:34:07.141Z,96612.13
2023-03-26T14:37:05.939Z,96615.50
2023-03-26T14:39:55.560Z,96624.31
2023-03-26T14:42:31.118Z,96621.41
2023-03-26T14:45:26.567Z,96621.19
2023-03-26T14:48:18.575Z,96625.59
2023-03-26T14:51:03.044Z,96624.41
2023-03-26T14:53:34.557Z,96626.59
2023-03-26T14:56:35.943Z,96638.97
2023-03-26T14:59:32.747Z,96660.03
2023-03-26T15:02:36.862Z,96679.53
2023-03-26T15:05:42.394Z,96692.59
2023-03-26T15:08:46.092Z,96706.38
2023-03-26T15:11:25.951Z,96710.09
2023-03-26T15:14:05.336Z,96718.94
2023-03-26T15:17:09.640Z,96697.56
2023-03-26T15:20:05.395Z,96682.16
2023-03-26T15:23:07.884Z,96698.75
2023-03-26T15:26:31.689Z,96719.78
2023-03-26T15:29:27.122Z,96720.38
2023-03-26T15:32:22.380Z,96743.16
2023-03-26T15:35:33.454Z,96736.25
2023-03-26T15:38:38.548Z,96733.19
2023-03-26T15:41:20.237Z,96734.56
2023-03-26T15:44:25.654Z,96728.50
2023-03-26T15:47:13.280Z,96730.38
2023-03-26T15:49:44.308Z,96728.00
2023-03-26T15:52:25.205Z,96733.41
2023-03-26T15:55:02.462Z,96734.75
2023-03-26T15:57:34.614Z,96738.53
2023-03-26T16:00:22.828Z,96745.81
2023-03-26T16:03:17.649Z,96745.53
2023-03-26T16:06:14.330Z,96743.13
2023-03-26T16:08:53.156Z,96728.91
2023-03-26T16:11:54.329Z,96730.25
2023-03-26T16:14:24.809Z,96720.88
2023-03-26T16:16:57.544Z,96722.00
2023-03-26T16:19:59.504Z,96722.53
2023-03-26T16:22:43.853Z,96728.72
2023-03-26T16:25:30.654Z,96728.19
2023-03-26T16:28:23.509Z,96720.69
2023-03-26T16:31:37.554Z,96721.75
2023-03-26T16:34:27.499Z,96725.50
2023-03-26T16:36:56.145Z,96736.50
2023-03-26T16:39:26.456Z,96739.44
2023-03-26T16:42:06.220Z,96747.22
2023-03-26T16:44:50.134Z,96757.69
2023-03-26T16:47:26.481Z,96760.63
2023-03-26T16:50:13.415Z,96762.78
2023-03-26T16:52:51.978Z,96769.50
2023-03-26T16:55:26.519Z,96785.59
2023-03-26T16:57:59.344Z,96779.94
2023-03-26T17:00:44.965Z,96794.72
2023-03-26T17:03:29.122Z,96786.94
2023-03-26T17:06:06.570Z,96784.78
2023-03-26T17:08:48.078Z,96786.94
2023-03-26T17:11:30.371Z,96789.06
2023-03-26T17:14:07.429Z,96788.25
2023-03-26T17:16:41.692Z,96799.25
2023-03-26T17:19:24.224Z,96797.38
2023-03-26T17:22:04.572Z,96796.84
2023-03-26T17:24:44.308Z,96801.94
2023-03-26T17:27:27.915Z,96801.66
2023-03-26T17:30:05.450Z,96803.53
2023-03-26T17:32:56.646Z,96802.19
2023-03-26T17:35:40.781Z,96794.94
2023-03-26T17:38:51.195Z,96798.94
2023-03-26T17:41:52.233Z,96792.50
2023-03-26T17:44:38.791Z,96802.13
2023-03-26T17:47:15.297Z,96800.00
2023-03-26T17:49:45.703Z,96804.53
2023-03-26T17:52:19.691Z,96804.00
2023-03-26T17:54:52.054Z,96804.00
2023-03-26T17:57:24.859Z,96797.31
2023-03-26T17:59:58.479Z,96793.00
2023-03-26T18:02:36.113Z,96802.94
2023-03-26T18:05:09.655Z,96804.00
2023-03-26T18:08:11.147Z,96799.72
2023-03-26T18:11:07.890Z,96799.19
2023-03-26T18:14:09.403Z,96806.16
2023-03-26T18:16:41.360Z,96804.00
2023-03-26T18:19:18.417Z,96793.28
2023-03-26T18:21:50.515Z,96800.81
2023-03-26T18:24:21.840Z,96794.38
2023-03-26T18:26:56.116Z,96791.69
2023-03-26T18:29:25.450Z,96792.50
2023-03-26T18:32:00.619Z,96801.59
2023-03-26T18:34:31.579Z,96796.78
2023-03-26T18:37:14.860Z,96803.22
2023-03-26T18:39:43.094Z,96805.34
2023-03-26T18:42:23.578Z,96805.34
2023-03-26T18:44:54.428Z,96803.72
2023-03-26T18:47:30.141Z,96806.41
2023-03-26T18:49:59.537Z,96804.53
2023-03-26T18:52:31.371Z,96794.34
2023-03-26T18:55:00.940Z,96793.81
2023-03-26T18:57:31.462Z,96790.88
2023-03-26T19:00:18.711Z,96794.88
2023-03-26T19:02:49.842Z,96798.38
2023-03-26T19:05:20.121Z,96791.13
2023-03-26T19:07:49.009Z,96791.13
2023-03-26T19:10:22.155Z,96788.72
2023-03-26T19:12:59.542Z,96790.59
2023-03-26T19:15:29.483Z,96794.34
2023-03-26T19:18:07.075Z,96789.53
2023-03-26T19:20:46.731Z,96794.09
2023-03-26T19:23:17.852Z,96793.53
2023-03-26T19:25:48.992Z,96785.50
2023-03-26T19:28:21.604Z,96786.28
2023-03-26T19:30:56.535Z,96783.34
2023-03-26T19:33:26.225Z,96783.59
2023-03-26T19:36:03.444Z,96788.97
2023-03-26T19:38:41.451Z,96790.56
2023-03-26T19:41:21.502Z,96790.81
2023-03-26T19:43:51.969Z,96792.16
2023-03-26T19:46:22.687Z,96779.56
2023-03-26T19:48:53.365Z,96774.75
2023-03-26T19:51:24.161Z,96783.03
2023-03-26T19:53:56.591Z,96779.31
2023-03-26T19:56:29.999Z,96781.44
2023-03-26T19:58:59.816Z,96771.78
2023-03-26T20:01:30.143Z,96772.34
2023-03-26T20:04:02.078Z,96764.81
2023-03-26T20:06:42.443Z,96767.47
2023-03-26T20:09:12.153Z,96773.91
2023-03-26T20:11:40.911Z,96772.31
2023-03-26T20:14:17.102Z,96774.97
2023-03-26T20:16:46.364Z,96765.84
2023-03-26T20:19:16.749Z,96771.22
2023-03-26T20:21:46.010Z,96768.53
2023-03-26T20:24:16.892Z,96768.25
2023-03-26T20:26:45.401Z,96769.63
2023-03-26T20:29:19.830Z,96770.41
2023-03-26T20:31:48.627Z,96775.75
2023-03-26T20:34:19.984Z,96765.59
2023-03-26T20:36:54.484Z,96773.63
2023-03-26T20:39:22.988Z,96773.34
2023-03-26T20:41:55.151Z,96765.31
2023-03-26T20:44:29.209Z,96761.03
2023-03-26T20:46:59.126Z,96752.16
2023-03-26T20:49:29.464Z,96758.59
2023-03-26T20:51:57.822Z,96762.06
2023-03-26T20:54:27.397Z,96749.75
2023-03-26T20:56:55.441Z,96752.16
2023-03-26T20:59:27.801Z,96747.84
2023-03-26T21:01:59.230Z,96755.59
2023-03-26T21:04:28.270Z,96753.97
2023-03-26T21:07:07.135Z,96761.72
2023-03-26T21:09:39.722Z,96760.94
2023-03-26T21:12:09.939Z,96773.50
2023-03-26T21:14:44.415Z,96758.78
2023-03-26T21:17:18.747Z,96762.28
2023-03-26T21:19:47.697Z,96772.16
2023-03-26T21:22:28.989Z,96763.88
2023-03-26T21:25:06.228Z,96771.34
2023-03-26T21:27:46.115Z,96765.19
2023-03-26T21:30:17.722Z,96766.25
2023-03-26T21:32:47.017Z,96768.94
2023-03-26T21:35:16.274Z,96766.00
2023-03-26T21:37:48.666Z,96765.19
2023-03-26T21:40:18.696Z,96772.41
2023-03-26T21:42:48.396Z,96762.78
2023-03-26T21:45:19.678Z,96762.00
2023-03-26T21:47:48.850Z,96766.81
2023-03-26T21:50:19.368Z,96768.13
2023-03-26T21:52:48.438Z,96771.63
2023-03-26T21:55:18.881Z,96780.44
2023-03-26T21:58:16.790Z,96775.34
2023-03-26T22:00:59.181Z,96777.72
2023-03-26T22:03:38.244Z,96779.84
2023-03-26T22:06:11.660Z,96785.72
2023-03-26T22:08:41.608Z,96793.75
2023-03-26T22:11:11.252Z,96787.88
2023-03-26T22:13:39.379Z,96797.22
2023-03-26T22:16:11.755Z,96790.28
2023-03-26T22:18:39.665Z,96789.47
2023-03-26T22:21:07.925Z,96789.44
2023-03-26T22:23:36.635Z,96791.00
2023-03-26T22:26:05.893Z,96796.63
2023-03-26T22:28:33.910Z,96800.34
2023-03-26T22:31:09.195Z,96799.81
2023-03-26T22:33:37.315Z,96796.59
2023-03-26T22:36:05.946Z,96804.31
2023-03-26T22:38:54.337Z,96813.97
2023-03-26T22:41:22.556Z,96808.88
2023-03-26T22:43:52.227Z,96808.06
2023-03-26T22:46:22.541Z,96812.31
2023-03-26T22:48:51.397Z,96813.66
2023-03-26T22:51:19.989Z,96815.00
2023-03-26T22:53:48.469Z,96809.88
2023-03-26T22:56:17.301Z,96815.25
2023-03-26T22:58:47.777Z,96812.31
2023-03-26T23:01:18.913Z,96817.16
2023-03-26T23:03:48.397Z,96820.84
2023-03-26T23:06:17.238Z,96814.72
2023-03-26T23:08:45.677Z,96830.78
2023-03-26T23:11:16.241Z,96825.41
2023-03-26T23:13:45.644Z,96824.81
2023-03-26T23:16:14.890Z,96839.81
2023-03-26T23:18:43.349Z,96839.25
2023-03-26T23:21:17.096Z,96839.78
2023-03-26T23:23:45.694Z,96846.03
2023-03-26T23:26:14.563Z,96852.13
2023-03-26T23:28:43.388Z,96851.53
2023-03-26T23:31:13.090Z,96857.41
2023-03-26T23:33:46.209Z,96857.63
2023-03-26T23:36:18.934Z,96864.28
2023-03-26T23:38:48.586Z,96854.66
2023-03-26T23:41:17.995Z,96859.22
2023-03-26T23:43:54.286Z,96869.38
2023-03-26T23:46:25.051Z,96862.19
2023-03-26T23:48:55.114Z,96870.81
2023-03-26T23:51:24.984Z,96873.72
2023-03-26T23:53:53.950Z,96874.56
2023-03-26T23:56:22.224Z,96886.06
2023-03-26T23:58:50.152Z,96877.75
